CheckWX is a tool to help pilots better visualize weather data.  It is not intended as a substitute for an official pre-flight weather briefing.

21:18:16 UTC

OSDI METAR
Damascus International Airport
Damascus, Syria
Current

7 hours ago

OSDI 081400Z 21015KT CAVOK 19/04 Q1012
Observed
Apr-8 @ 14:00 UTC
Wind
  • 210° at 15 KTS
Visibility
10,000+ meters
Flight Rules
VFR
Cloud Levels
  • Clear skies
Temperature
19°C / 66°F
Dewpoint
C / 39°F
Humidity
37%
Altimeter
29.88" Hg
Pressure
1011.92 hPa
Previous

8 hours ago

OSDI 081300Z 22017KT CAVOK 20/04 Q1012
Observed
Apr-8 @ 13:00 UTC
Wind
  • 220° at 17 KTS
Visibility
10,000+ meters
Flight Rules
VFR
Cloud Levels
  • Clear skies
Temperature
20°C / 68°F
Dewpoint
C / 39°F
Humidity
35%
Altimeter
29.88" Hg
Pressure
1011.92 hPa